createdAt,value
2023-04-02T00:00:26.476Z,33.04
2023-04-02T00:00:56.477Z,33.01
2023-04-02T00:01:26.601Z,32.97
2023-04-02T00:01:56.645Z,33.02
2023-04-02T00:02:26.721Z,33.07
2023-04-02T00:02:56.832Z,33.03
2023-04-02T00:03:26.829Z,32.91
2023-04-02T00:03:56.902Z,33.04
2023-04-02T00:04:26.874Z,33.01
2023-04-02T00:04:56.949Z,32.98
2023-04-02T00:05:27.028Z,33.01
2023-04-02T00:05:57.113Z,33.05
2023-04-02T00:06:27.193Z,33.04
2023-04-02T00:06:57.277Z,32.99
2023-04-02T00:07:27.351Z,33.02
2023-04-02T00:07:57.457Z,33.02
2023-04-02T00:08:27.515Z,33.01
2023-04-02T00:08:57.602Z,32.95
2023-04-02T00:09:27.685Z,33.04
2023-04-02T00:09:57.776Z,33.00
2023-04-02T00:10:27.839Z,32.96
2023-04-02T00:10:57.919Z,33.02
2023-04-02T00:11:28.001Z,33.02
2023-04-02T00:11:58.084Z,32.99
2023-04-02T00:12:28.192Z,33.02
2023-04-02T00:12:58.305Z,32.97
2023-04-02T00:13:28.301Z,33.03
2023-04-02T00:13:58.425Z,33.02
2023-04-02T00:14:28.436Z,33.02
2023-04-02T00:14:58.433Z,32.99
2023-04-02T00:15:28.546Z,32.99
2023-04-02T00:15:58.570Z,32.96
2023-04-02T00:16:28.689Z,33.00
2023-04-02T00:16:58.655Z,33.02
2023-04-02T00:17:28.776Z,33.00
2023-04-02T00:17:58.921Z,32.99
2023-04-02T00:18:28.979Z,33.09
2023-04-02T00:18:59.033Z,33.00
2023-04-02T00:19:29.030Z,33.00
2023-04-02T00:19:59.164Z,32.97
2023-04-02T00:20:29.268Z,32.96
2023-04-02T00:20:59.384Z,32.99
2023-04-02T00:21:29.393Z,33.03
2023-04-02T00:21:59.503Z,32.97
2023-04-02T00:22:29.627Z,32.99
2023-04-02T00:22:59.614Z,33.01
2023-04-02T00:23:29.763Z,32.97
2023-04-02T00:23:59.852Z,32.99
2023-04-02T00:24:29.848Z,32.99
2023-04-02T00:25:29.923Z,32.97
2023-04-02T00:26:00.070Z,32.97
2023-04-02T00:26:30.062Z,32.93
2023-04-02T00:27:00.198Z,32.96
2023-04-02T00:27:30.293Z,33.02
2023-04-02T00:28:00.412Z,33.00
2023-04-02T00:28:30.405Z,32.96
2023-04-02T00:29:00.528Z,32.93
2023-04-02T00:29:30.523Z,32.99
2023-04-02T00:30:00.639Z,33.01
2023-04-02T00:30:30.629Z,32.97
2023-04-02T00:31:00.751Z,33.02
2023-04-02T00:31:30.871Z,32.96
2023-04-02T00:32:01.026Z,32.96
2023-04-02T00:32:31.130Z,32.96
2023-04-02T00:33:01.162Z,32.97
2023-04-02T00:33:31.176Z,32.93
2023-04-02T00:34:01.605Z,33.01
2023-04-02T00:34:31.213Z,32.91
2023-04-02T00:35:31.289Z,32.94
2023-04-02T00:36:01.452Z,32.97
2023-04-02T00:36:31.438Z,32.97
2023-04-02T00:37:01.561Z,33.02
2023-04-02T00:37:31.556Z,33.03
2023-04-02T00:38:01.668Z,32.96
2023-04-02T00:38:31.677Z,33.00
2023-04-02T00:39:01.826Z,32.99
2023-04-02T00:39:31.798Z,32.94
2023-04-02T00:40:31.899Z,32.97
2023-04-02T00:41:02.015Z,32.99
2023-04-02T00:41:32.143Z,32.95
2023-04-02T00:42:02.152Z,32.99
2023-04-02T00:42:32.160Z,32.94
2023-04-02T00:43:02.262Z,32.92
2023-04-02T00:43:32.384Z,32.94
2023-04-02T00:44:02.383Z,32.96
2023-04-02T00:44:32.367Z,33.00
2023-04-02T00:45:02.487Z,32.91
2023-04-02T00:45:32.763Z,32.99
2023-04-02T00:46:02.584Z,32.97
2023-04-02T00:46:32.652Z,32.94
2023-04-02T00:47:02.653Z,33.02
2023-04-02T00:47:32.816Z,32.97
2023-04-02T00:48:02.897Z,32.97
2023-04-02T00:48:32.911Z,32.94
2023-04-02T00:49:03.044Z,32.94
2023-04-02T00:49:33.041Z,32.96
2023-04-02T00:50:33.120Z,32.96
2023-04-02T00:51:03.232Z,32.98
2023-04-02T00:51:33.234Z,32.94
2023-04-02T00:52:33.300Z,32.97
2023-04-02T00:53:03.302Z,32.96
2023-04-02T00:54:03.369Z,32.94
2023-04-02T00:54:33.508Z,32.94
2023-04-02T00:55:03.483Z,32.98
2023-04-02T00:55:33.842Z,32.94
2023-04-02T00:56:03.639Z,32.97
2023-04-02T00:56:33.631Z,32.95
2023-04-02T00:57:03.843Z,32.94
2023-04-02T00:57:33.895Z,32.94
2023-04-02T00:58:03.909Z,32.95
2023-04-02T00:58:33.918Z,32.92
2023-04-02T00:59:04.028Z,32.89
2023-04-02T00:59:34.029Z,32.91
2023-04-02T01:00:04.024Z,32.95
2023-04-02T01:00:34.016Z,32.95
2023-04-02T01:01:04.151Z,32.94
2023-04-02T01:01:34.197Z,32.95
2023-04-02T01:02:04.204Z,32.98
2023-04-02T01:02:34.344Z,33.01
2023-04-02T01:03:04.392Z,32.94
2023-04-02T01:03:34.612Z,32.91
2023-04-02T01:04:04.288Z,32.91
2023-04-02T01:04:34.524Z,32.97
2023-04-02T01:05:04.406Z,32.95
2023-04-02T01:05:34.570Z,32.91
2023-04-02T01:06:04.513Z,32.91
2023-04-02T01:06:34.589Z,32.91
2023-04-02T01:07:04.670Z,32.95
2023-04-02T01:07:34.747Z,32.91
2023-04-02T01:08:04.832Z,32.94
2023-04-02T01:08:34.911Z,32.94
2023-04-02T01:09:05.014Z,32.97
2023-04-02T01:09:35.089Z,32.91
2023-04-02T01:10:05.195Z,32.92
2023-04-02T01:10:35.250Z,32.99
2023-04-02T01:11:05.333Z,32.91
2023-04-02T01:11:35.450Z,32.92
2023-04-02T01:12:05.512Z,32.95
2023-04-02T01:12:35.540Z,32.97
2023-04-02T01:13:05.643Z,33.01
2023-04-02T01:13:35.641Z,32.88
2023-04-02T01:14:05.645Z,32.94
2023-04-02T01:14:35.647Z,32.94
2023-04-02T01:15:35.942Z,32.97
2023-04-02T01:16:05.819Z,32.89
2023-04-02T01:16:35.794Z,32.91
2023-04-02T01:17:05.910Z,32.89
2023-04-02T01:17:35.905Z,32.97
2023-04-02T01:18:06.032Z,32.92
2023-04-02T01:18:36.021Z,32.95
2023-04-02T01:19:06.030Z,32.91
2023-04-02T01:20:06.101Z,32.97
2023-04-02T01:20:36.091Z,32.98
2023-04-02T01:21:06.211Z,32.92
2023-04-02T01:21:36.206Z,32.94
2023-04-02T01:22:36.281Z,32.91
2023-04-02T01:23:06.392Z,32.85
2023-04-02T01:23:36.391Z,32.94
2023-04-02T01:24:06.404Z,32.88
2023-04-02T01:25:06.504Z,32.92
2023-04-02T01:25:36.762Z,32.91
2023-04-02T01:26:06.546Z,32.94
2023-04-02T01:27:06.623Z,32.89
2023-04-02T01:27:36.614Z,32.89
2023-04-02T01:28:36.689Z,32.94
2023-04-02T01:29:06.823Z,32.94
2023-04-02T01:29:36.927Z,32.95
2023-04-02T01:30:07.055Z,32.94
2023-04-02T01:30:37.050Z,32.97
2023-04-02T01:31:37.186Z,32.89
2023-04-02T01:32:07.200Z,32.94
2023-04-02T01:32:37.217Z,32.92
2023-04-02T01:33:07.364Z,32.92
2023-04-02T01:33:37.374Z,32.93
2023-04-02T01:34:07.367Z,32.86
2023-04-02T01:34:37.480Z,32.91
2023-04-02T01:35:07.604Z,32.89
2023-04-02T01:35:37.891Z,32.98
2023-04-02T01:36:07.743Z,32.97
2023-04-02T01:36:37.724Z,32.97
2023-04-02T01:37:07.852Z,32.94
2023-04-02T01:37:37.824Z,32.94
2023-04-02T01:38:07.947Z,32.91
2023-04-02T01:38:37.941Z,32.89
2023-04-02T01:39:38.013Z,32.89
2023-04-02T01:40:08.018Z,32.88
2023-04-02T01:40:38.013Z,32.89
2023-04-02T01:41:08.151Z,32.91
2023-04-02T01:41:38.126Z,32.92
2023-04-02T01:42:38.200Z,32.89
2023-04-02T01:43:08.317Z,32.91
2023-04-02T01:43:38.316Z,32.94
2023-04-02T01:44:08.441Z,32.95
2023-04-02T01:44:38.558Z,32.95
2023-04-02T01:45:08.678Z,32.92
2023-04-02T01:45:38.672Z,32.86
2023-04-02T01:46:08.816Z,32.89
2023-04-02T01:46:38.813Z,32.86
2023-04-02T01:47:08.793Z,32.91
2023-04-02T01:47:38.975Z,32.91
2023-04-02T01:48:08.997Z,32.91
2023-04-02T01:48:39.003Z,32.86
2023-04-02T01:49:08.999Z,32.91
2023-04-02T01:50:09.103Z,32.91
2023-04-02T01:50:39.101Z,32.89
2023-04-02T01:51:09.221Z,32.84
2023-04-02T01:51:39.333Z,32.86
2023-04-02T01:52:09.376Z,32.89
2023-04-02T01:52:39.501Z,32.88
2023-04-02T01:53:09.614Z,32.87
2023-04-02T01:53:39.727Z,32.91
2023-04-02T01:54:09.722Z,32.91
2023-04-02T01:54:39.843Z,32.88
2023-04-02T01:55:09.835Z,32.90
2023-04-02T01:55:39.845Z,32.88
2023-04-02T01:56:09.947Z,32.89
2023-04-02T01:56:40.097Z,32.87
2023-04-02T01:57:10.128Z,32.89
2023-04-02T01:57:40.139Z,32.91
2023-04-02T01:58:10.111Z,32.89
2023-04-02T01:59:10.215Z,32.86
2023-04-02T01:59:40.210Z,32.86
2023-04-02T02:00:10.218Z,32.89
2023-04-02T02:00:40.266Z,32.92
2023-04-02T02:01:10.290Z,32.90
2023-04-02T02:01:40.378Z,32.88
2023-04-02T02:02:10.571Z,32.91
2023-04-02T02:02:40.701Z,32.88
2023-04-02T02:03:10.555Z,32.89
2023-04-02T02:03:40.544Z,32.91
2023-04-02T02:04:10.627Z,32.83
2023-04-02T02:04:40.639Z,32.86
2023-04-02T02:05:10.724Z,32.84
2023-04-02T02:05:40.810Z,32.86
2023-04-02T02:06:10.883Z,32.86
2023-04-02T02:06:40.975Z,32.86
2023-04-02T02:07:11.050Z,32.86
2023-04-02T02:07:41.130Z,32.87
2023-04-02T02:08:11.205Z,32.87
2023-04-02T02:08:41.287Z,32.87
2023-04-02T02:09:11.661Z,32.93
2023-04-02T02:09:41.493Z,32.87
2023-04-02T02:10:41.609Z,32.89
2023-04-02T02:11:11.691Z,32.89
2023-04-02T02:11:41.769Z,32.83
2023-04-02T02:12:11.890Z,32.87
2023-04-02T02:12:41.989Z,32.84
2023-04-02T02:13:11.979Z,32.84
2023-04-02T02:13:42.291Z,32.84
2023-04-02T02:14:12.170Z,32.89
2023-04-02T02:14:42.156Z,32.84
2023-04-02T02:15:42.244Z,32.89
2023-04-02T02:16:12.407Z,32.95
2023-04-02T02:16:42.534Z,32.81
2023-04-02T02:17:12.499Z,32.86
2023-04-02T02:17:42.662Z,32.87
2023-04-02T02:18:12.700Z,32.84
2023-04-02T02:18:42.697Z,32.84
2023-04-02T02:19:12.866Z,32.87
2023-04-02T02:19:42.711Z,32.84
2023-04-02T02:20:42.790Z,32.84
2023-04-02T02:21:12.905Z,32.87
2023-04-02T02:21:43.023Z,32.81
2023-04-02T02:22:13.017Z,32.81
2023-04-02T02:22:43.136Z,32.87
2023-04-02T02:23:13.256Z,32.86
2023-04-02T02:23:43.373Z,32.84
2023-04-02T02:24:13.388Z,32.84
2023-04-02T02:24:43.408Z,32.87
2023-04-02T02:25:13.399Z,32.84
2023-04-02T02:25:43.514Z,32.89
2023-04-02T02:26:13.510Z,32.84
2023-04-02T02:26:43.625Z,32.84
2023-04-02T02:27:13.623Z,32.84
2023-04-02T02:27:43.763Z,32.86
2023-04-02T02:28:13.731Z,32.85
2023-04-02T02:29:13.854Z,32.82
2023-04-02T02:29:43.880Z,32.84
2023-04-02T02:30:13.879Z,32.82
2023-04-02T02:31:13.955Z,32.89
2023-04-02T02:31:44.092Z,32.84
2023-04-02T02:32:14.081Z,32.83
2023-04-02T02:32:44.097Z,32.89
2023-04-02T02:33:14.206Z,32.81
2023-04-02T02:33:44.324Z,32.87
2023-04-02T02:34:14.453Z,32.87
2023-04-02T02:34:44.449Z,32.79
2023-04-02T02:35:14.570Z,32.82
2023-04-02T02:35:44.598Z,32.78
2023-04-02T02:36:14.626Z,32.85
2023-04-02T02:36:44.620Z,32.85
2023-04-02T02:37:14.627Z,32.84
2023-04-02T02:38:14.702Z,32.82
2023-04-02T02:38:44.700Z,32.85
2023-04-02T02:39:44.783Z,32.82
2023-04-02T02:40:14.902Z,32.79
2023-04-02T02:40:44.898Z,32.78
2023-04-02T02:41:44.979Z,32.84
2023-04-02T02:42:15.089Z,32.81
2023-04-02T02:42:45.207Z,32.82
2023-04-02T02:43:15.229Z,32.82
2023-04-02T02:43:45.320Z,32.82
2023-04-02T02:44:15.369Z,32.81
2023-04-02T02:44:45.358Z,32.86
2023-04-02T02:45:15.483Z,32.82
2023-04-02T02:45:45.529Z,32.82
2023-04-02T02:46:15.529Z,32.79
2023-04-02T02:46:45.524Z,32.89
2023-04-02T02:47:15.638Z,32.82
2023-04-02T02:47:45.813Z,32.85
2023-04-02T02:48:15.834Z,32.81
2023-04-02T02:48:45.948Z,32.81
2023-04-02T02:49:16.073Z,32.82
2023-04-02T02:49:46.070Z,32.89
2023-04-02T02:50:16.220Z,32.78
2023-04-02T02:50:46.215Z,32.81
2023-04-02T02:51:46.303Z,32.82
2023-04-02T02:52:16.417Z,32.76
2023-04-02T02:52:46.411Z,32.84
2023-04-02T02:53:46.508Z,32.82
2023-04-02T02:54:16.618Z,32.75
2023-04-02T02:54:46.739Z,32.82
2023-04-02T02:55:16.805Z,32.78
2023-04-02T02:55:46.807Z,32.78
2023-04-02T02:56:16.928Z,32.80
2023-04-02T02:56:46.948Z,32.82
2023-04-02T02:57:16.992Z,32.79
2023-04-02T02:57:47.019Z,32.84
2023-04-02T02:58:17.015Z,32.79
2023-04-02T02:58:47.160Z,32.82
2023-04-02T02:59:17.244Z,32.80
2023-04-02T02:59:47.243Z,32.79
2023-04-02T03:00:17.380Z,32.82
2023-04-02T03:00:47.372Z,32.81
2023-04-02T03:01:17.525Z,32.82
2023-04-02T03:01:47.571Z,32.82
2023-04-02T03:02:56.560Z,32.90
2023-04-02T03:03:26.821Z,32.85
2023-04-02T03:03:56.893Z,32.82
2023-04-02T03:04:26.719Z,32.87
2023-04-02T03:04:56.721Z,32.87
2023-04-02T03:05:26.809Z,32.87
2023-04-02T03:05:56.890Z,32.88
2023-04-02T03:06:26.970Z,32.84
2023-04-02T03:06:57.053Z,32.82
2023-04-02T03:07:27.135Z,32.85
2023-04-02T03:07:57.220Z,32.88
2023-04-02T03:08:27.324Z,32.86
2023-04-02T03:08:57.398Z,32.91
2023-04-02T03:09:27.472Z,32.85
2023-04-02T03:09:57.556Z,32.80
2023-04-02T03:10:27.644Z,32.84
2023-04-02T03:10:57.717Z,32.84
2023-04-02T03:11:27.797Z,32.85
2023-04-02T03:11:57.894Z,32.79
2023-04-02T03:12:27.969Z,32.88
2023-04-02T03:12:58.085Z,32.82
2023-04-02T03:13:28.202Z,32.83
2023-04-02T03:13:58.437Z,32.77
2023-04-02T03:14:28.431Z,32.82
2023-04-02T03:14:58.533Z,32.80
2023-04-02T03:15:28.553Z,32.85
2023-04-02T03:15:58.612Z,32.77
2023-04-02T03:16:28.602Z,32.82
2023-04-02T03:16:58.713Z,32.80
2023-04-02T03:17:28.770Z,32.82
2023-04-02T03:17:58.817Z,32.80
2023-04-02T03:18:28.818Z,32.79
2023-04-02T03:18:58.951Z,32.85
2023-04-02T03:19:29.051Z,32.74
2023-04-02T03:19:59.047Z,32.86
2023-04-02T03:20:29.054Z,32.80
2023-04-02T03:21:29.140Z,32.77
2023-04-02T03:21:59.260Z,32.76
2023-04-02T03:22:29.256Z,32.79
2023-04-02T03:23:29.355Z,32.77
2023-04-02T03:23:59.350Z,32.80
2023-04-02T03:24:29.366Z,32.85
2023-04-02T03:24:59.500Z,32.76
2023-04-02T03:25:29.610Z,32.76
2023-04-02T03:25:59.604Z,32.79
2023-04-02T03:26:29.724Z,32.79
2023-04-02T03:26:59.836Z,32.76
2023-04-02T03:27:29.953Z,32.77
2023-04-02T03:28:00.076Z,32.76
2023-04-02T03:28:30.191Z,32.79
2023-04-02T03:29:00.267Z,32.80
2023-04-02T03:29:30.228Z,32.82
2023-04-02T03:30:00.360Z,32.83
2023-04-02T03:30:30.472Z,32.74
2023-04-02T03:31:00.616Z,32.79
2023-04-02T03:31:30.642Z,32.77
2023-04-02T03:32:00.646Z,32.77
2023-04-02T03:32:30.767Z,32.77
2023-04-02T03:33:00.792Z,32.77
2023-04-02T03:33:30.770Z,32.74
2023-04-02T03:34:00.791Z,32.75
2023-04-02T03:34:30.778Z,32.75
2023-04-02T03:35:00.899Z,32.76
2023-04-02T03:35:30.900Z,32.76
2023-04-02T03:36:01.028Z,32.82
2023-04-02T03:36:31.047Z,32.74
2023-04-02T03:37:01.041Z,32.79
2023-04-02T03:37:31.044Z,32.73
2023-04-02T03:38:01.150Z,32.75
2023-04-02T03:38:31.273Z,32.77
2023-04-02T03:39:01.417Z,32.75
2023-04-02T03:39:31.413Z,32.75
2023-04-02T03:40:01.530Z,32.80
2023-04-02T03:40:31.529Z,32.75
2023-04-02T03:41:31.597Z,32.80
2023-04-02T03:42:01.713Z,32.77
2023-04-02T03:42:31.832Z,32.74
2023-04-02T03:43:01.943Z,32.76
2023-04-02T03:43:32.065Z,32.77
2023-04-02T03:44:02.082Z,32.79
2023-04-02T03:44:32.092Z,32.79
2023-04-02T03:45:02.086Z,32.81
2023-04-02T03:45:32.262Z,32.75
2023-04-02T03:46:02.303Z,32.74
2023-04-02T03:46:32.322Z,32.80
2023-04-02T03:47:02.293Z,32.75
2023-04-02T03:47:32.366Z,32.71
2023-04-02T03:48:02.392Z,32.73
2023-04-02T03:48:32.382Z,32.82
2023-04-02T03:49:02.521Z,32.79
2023-04-02T03:49:32.521Z,32.73
2023-04-02T03:50:02.636Z,32.80
2023-04-02T03:50:32.756Z,32.74
2023-04-02T03:51:02.897Z,32.73
2023-04-02T03:51:32.873Z,32.71
2023-04-02T03:52:32.938Z,32.74
2023-04-02T03:53:03.054Z,32.73
2023-04-02T03:53:33.048Z,32.74
2023-04-02T03:54:03.206Z,32.68
2023-04-02T03:54:33.193Z,32.71
2023-04-02T03:55:03.312Z,32.76
2023-04-02T03:55:33.648Z,32.77
2023-04-02T03:56:03.386Z,32.71
2023-04-02T03:56:33.379Z,32.73
2023-04-02T03:57:03.519Z,32.74
2023-04-02T03:57:33.564Z,32.74
2023-04-02T03:58:03.588Z,32.73
2023-04-02T03:58:33.705Z,32.74
2023-04-02T03:59:03.705Z,32.71
2023-04-02T04:00:03.854Z,32.74
2023-04-02T04:00:33.813Z,32.73
2023-04-02T04:01:03.821Z,32.69
2023-04-02T04:02:03.906Z,32.71
2023-04-02T04:02:34.038Z,32.71
2023-04-02T04:03:04.179Z,32.66
2023-04-02T04:03:34.157Z,32.73
2023-04-02T04:04:04.315Z,32.68
2023-04-02T04:04:34.309Z,32.69
2023-04-02T04:05:34.446Z,32.70
2023-04-02T04:06:04.364Z,32.69
2023-04-02T04:06:34.478Z,32.71
2023-04-02T04:07:04.535Z,32.75
2023-04-02T04:07:34.638Z,32.74
2023-04-02T04:08:04.728Z,32.73
2023-04-02T04:08:34.817Z,32.73
2023-04-02T04:09:04.882Z,32.68
2023-04-02T04:09:34.971Z,32.71
2023-04-02T04:10:05.051Z,32.69
2023-04-02T04:10:35.128Z,32.71
2023-04-02T04:11:05.276Z,32.73
2023-04-02T04:11:35.215Z,32.69
2023-04-02T04:12:05.322Z,32.73
2023-04-02T04:12:35.394Z,32.74
2023-04-02T04:13:05.523Z,32.69
2023-04-02T04:13:35.641Z,32.69
2023-04-02T04:14:05.632Z,32.71
2023-04-02T04:15:05.761Z,32.71
2023-04-02T04:15:35.949Z,32.66
2023-04-02T04:16:05.896Z,32.71
2023-04-02T04:16:35.935Z,32.69
2023-04-02T04:17:05.961Z,32.71
2023-04-02T04:17:35.973Z,32.73
2023-04-02T04:18:06.017Z,32.71
2023-04-02T04:18:35.998Z,32.71
2023-04-02T04:19:06.116Z,32.71
2023-04-02T04:19:36.108Z,32.68
2023-04-02T04:20:36.180Z,32.68
2023-04-02T04:21:06.193Z,32.68
2023-04-02T04:21:36.185Z,32.68
2023-04-02T04:22:06.302Z,32.69
2023-04-02T04:22:36.319Z,32.71
2023-04-02T04:23:36.380Z,32.69
2023-04-02T04:24:06.392Z,32.74
2023-04-02T04:25:06.477Z,32.68
2023-04-02T04:25:36.705Z,32.75
2023-04-02T04:26:06.492Z,32.66
2023-04-02T04:26:36.484Z,32.72
2023-04-02T04:27:36.559Z,32.69
2023-04-02T04:28:06.555Z,32.66
2023-04-02T04:29:06.646Z,32.68
2023-04-02T04:29:36.637Z,32.64
2023-04-02T04:30:06.760Z,32.64
2023-04-02T04:30:36.873Z,32.68
2023-04-02T04:31:07.026Z,32.69
2023-04-02T04:31:36.997Z,32.68
2023-04-02T04:32:37.170Z,32.63
2023-04-02T04:33:07.168Z,32.71
2023-04-02T04:33:37.141Z,32.69
2023-04-02T04:34:37.222Z,32.64
2023-04-02T04:35:07.337Z,32.69
2023-04-02T04:35:37.854Z,32.68
2023-04-02T04:36:07.420Z,32.68
2023-04-02T04:36:37.422Z,32.68
2023-04-02T04:37:07.421Z,32.64
2023-04-02T04:37:37.542Z,32.66
2023-04-02T04:38:07.676Z,32.69
2023-04-02T04:38:37.697Z,32.69
2023-04-02T04:39:07.834Z,32.71
2023-04-02T04:39:37.825Z,32.60
2023-04-02T04:40:37.937Z,32.64
2023-04-02T04:41:08.053Z,32.63
2023-04-02T04:41:38.064Z,32.68
2023-04-02T04:42:08.166Z,32.66
2023-04-02T04:42:38.164Z,32.70
2023-04-02T04:43:38.269Z,32.72
2023-04-02T04:44:08.409Z,32.68
2023-04-02T04:44:38.406Z,32.66
2023-04-02T04:45:38.494Z,32.64
2023-04-02T04:46:08.708Z,32.65
2023-04-02T04:46:38.741Z,32.67
2023-04-02T04:47:08.822Z,32.63
2023-04-02T04:47:38.852Z,32.64
2023-04-02T04:48:08.950Z,32.69
2023-04-02T04:48:39.054Z,32.68
2023-04-02T04:49:09.053Z,32.64
2023-04-02T04:49:39.168Z,32.61
2023-04-02T04:50:09.175Z,32.64
2023-04-02T04:51:09.270Z,32.63
2023-04-02T04:51:39.266Z,32.63
2023-04-02T04:52:39.352Z,32.64
2023-04-02T04:53:09.348Z,32.64
2023-04-02T04:54:09.421Z,32.67
2023-04-02T04:54:39.411Z,32.69
2023-04-02T04:55:09.579Z,32.64
2023-04-02T04:55:39.568Z,32.66
2023-04-02T04:56:18.467Z,32.61
2023-04-02T04:56:39.600Z,32.66
2023-04-02T04:57:09.736Z,32.64
2023-04-02T04:57:39.840Z,32.72
2023-04-02T04:58:09.953Z,32.72
2023-04-02T04:58:39.954Z,32.64
2023-04-02T04:59:40.024Z,32.61
2023-04-02T05:00:10.137Z,32.63
2023-04-02T05:00:40.134Z,32.67
2023-04-02T05:01:10.180Z,32.59
2023-04-02T05:01:40.167Z,32.64
2023-04-02T05:02:10.186Z,32.63
2023-04-02T05:02:40.265Z,32.67
2023-04-02T05:03:10.374Z,32.66
2023-04-02T05:03:40.464Z,32.64
2023-04-02T05:04:10.608Z,32.69
2023-04-02T05:04:40.652Z,32.61
2023-04-02T05:05:10.614Z,32.58
2023-04-02T05:05:40.702Z,32.64
2023-04-02T05:06:10.771Z,32.63
2023-04-02T05:06:40.869Z,32.64
2023-04-02T05:07:10.939Z,32.61
2023-04-02T05:07:41.012Z,32.66
2023-04-02T05:08:11.098Z,32.61
2023-04-02T05:08:41.174Z,32.69
2023-04-02T05:09:11.268Z,32.58
2023-04-02T05:09:41.352Z,32.62
2023-04-02T05:10:11.431Z,32.64
2023-04-02T05:10:41.509Z,32.59
2023-04-02T05:11:11.586Z,32.61
2023-04-02T05:11:41.686Z,32.58
2023-04-02T05:12:11.755Z,32.61
2023-04-02T05:12:41.851Z,32.59
2023-04-02T05:13:11.844Z,32.64
2023-04-02T05:13:41.967Z,32.62
2023-04-02T05:14:12.000Z,32.61
2023-04-02T05:14:41.993Z,32.57
2023-04-02T05:15:42.173Z,32.59
2023-04-02T05:16:12.226Z,32.61
2023-04-02T05:16:42.203Z,32.59
2023-04-02T05:17:12.213Z,32.61
2023-04-02T05:17:42.352Z,32.61
2023-04-02T05:18:12.354Z,32.61
2023-04-02T05:18:42.474Z,32.61
2023-04-02T05:19:12.607Z,32.59
2023-04-02T05:19:42.598Z,32.58
2023-04-02T05:20:42.681Z,32.58
2023-04-02T05:21:12.692Z,32.61
2023-04-02T05:21:42.798Z,32.61
2023-04-02T05:22:12.921Z,32.58
2023-04-02T05:22:43.031Z,32.55
2023-04-02T05:23:13.026Z,32.56
2023-04-02T05:23:43.047Z,32.56
2023-04-02T05:24:13.088Z,32.61
2023-04-02T05:24:43.082Z,32.61
2023-04-02T05:25:13.205Z,32.59
2023-04-02T05:25:43.324Z,32.55
2023-04-02T05:26:13.319Z,32.53
2023-04-02T05:26:43.433Z,32.57
2023-04-02T05:27:13.553Z,32.57
2023-04-02T05:27:43.667Z,32.59
2023-04-02T05:28:13.777Z,32.53
2023-04-02T05:28:43.895Z,32.57
2023-04-02T05:29:14.020Z,32.53
2023-04-02T05:29:44.134Z,32.55
2023-04-02T05:30:14.259Z,32.58
2023-04-02T05:30:44.263Z,32.57
2023-04-02T05:31:44.410Z,32.53
2023-04-02T05:32:14.450Z,32.58
2023-04-02T05:32:44.628Z,32.62
2023-04-02T05:33:14.624Z,32.57
2023-04-02T05:33:44.744Z,32.62
2023-04-02T05:34:14.881Z,32.62
2023-04-02T05:34:44.853Z,32.57
2023-04-02T05:35:14.970Z,32.56
2023-04-02T05:35:45.131Z,32.59
2023-04-02T05:36:15.151Z,32.53
2023-04-02T05:36:45.114Z,32.61
2023-04-02T05:37:15.228Z,32.57
2023-04-02T05:37:45.224Z,32.58
2023-04-02T05:38:15.343Z,32.60
2023-04-02T05:38:45.453Z,32.57
2023-04-02T05:39:15.451Z,32.53
2023-04-02T05:40:15.463Z,32.55
2023-04-02T05:40:45.563Z,32.58
2023-04-02T05:41:15.680Z,32.57
2023-04-02T05:41:45.808Z,32.55
2023-04-02T05:42:15.794Z,32.51
2023-04-02T05:42:45.841Z,32.55
2023-04-02T05:43:15.953Z,32.59
2023-04-02T05:43:46.076Z,32.55
2023-04-02T05:44:16.084Z,32.53
2023-04-02T05:44:46.078Z,32.50
2023-04-02T05:45:16.210Z,32.65
2023-04-02T05:45:46.343Z,32.58
2023-04-02T05:46:16.402Z,32.56
2023-04-02T05:46:46.402Z,32.58
2023-04-02T05:47:16.439Z,32.59
2023-04-02T05:47:46.644Z,32.57
2023-04-02T05:48:16.650Z,32.54
2023-04-02T05:48:46.768Z,32.55
2023-04-02T05:49:16.881Z,32.52
2023-04-02T05:49:46.994Z,32.55
2023-04-02T05:50:17.123Z,32.56
2023-04-02T05:50:47.251Z,32.50
2023-04-02T05:51:17.260Z,32.50
2023-04-02T05:51:47.376Z,32.52
2023-04-02T05:52:17.369Z,32.55
2023-04-02T05:52:47.497Z,32.53
2023-04-02T05:53:17.603Z,32.57
2023-04-02T05:53:47.630Z,32.57
2023-04-02T05:54:17.622Z,32.55
2023-04-02T05:54:47.736Z,32.50
2023-04-02T05:55:17.740Z,32.56
2023-04-02T05:55:47.871Z,32.50
2023-04-02T05:56:17.857Z,32.52
2023-04-02T05:56:47.996Z,32.53
2023-04-02T05:57:18.287Z,32.52
2023-04-02T05:58:01.125Z,32.61
2023-04-02T05:58:48.249Z,32.55
2023-04-02T05:59:18.260Z,32.52
2023-04-02T05:59:48.375Z,32.57
2023-04-02T06:00:18.368Z,32.54
2023-04-02T06:00:48.498Z,32.56
2023-04-02T06:01:18.491Z,32.50
2023-04-02T06:01:48.627Z,32.50
2023-04-02T06:02:18.668Z,32.52
2023-04-02T06:02:48.671Z,32.53
2023-04-02T06:03:18.857Z,32.50
2023-04-02T06:03:48.882Z,32.48
2023-04-02T06:04:18.982Z,32.50
2023-04-02T06:04:49.038Z,32.52
2023-04-02T06:05:19.123Z,32.56
2023-04-02T06:05:49.213Z,32.47
2023-04-02T06:06:19.281Z,32.50
2023-04-02T06:06:49.379Z,32.47
2023-04-02T06:07:19.448Z,32.50
2023-04-02T06:07:49.526Z,32.50
2023-04-02T06:08:19.590Z,32.53
2023-04-02T06:08:49.672Z,32.51
2023-04-02T06:09:19.750Z,32.55
2023-04-02T06:09:49.834Z,32.48
2023-04-02T06:10:19.905Z,32.48
2023-04-02T06:10:49.986Z,32.52
2023-04-02T06:11:20.072Z,32.48
2023-04-02T06:11:50.163Z,32.51
2023-04-02T06:12:20.237Z,32.50
2023-04-02T06:12:50.350Z,32.50
2023-04-02T06:13:20.472Z,32.44
2023-04-02T06:13:50.583Z,32.52
2023-04-02T06:14:20.584Z,32.50
2023-04-02T06:14:50.703Z,32.46
2023-04-02T06:15:20.693Z,32.50
2023-04-02T06:15:50.807Z,32.50
2023-04-02T06:16:20.931Z,32.50
2023-04-02T06:16:50.962Z,32.46
2023-04-02T06:17:20.940Z,32.50
2023-04-02T06:17:51.099Z,32.47
2023-04-02T06:18:21.089Z,32.51
2023-04-02T06:18:51.136Z,32.53
2023-04-02T06:19:21.132Z,32.47
2023-04-02T06:19:51.245Z,32.49
2023-04-02T06:20:21.262Z,32.47
2023-04-02T06:20:51.261Z,32.50
2023-04-02T06:21:21.398Z,32.42
2023-04-02T06:21:51.372Z,32.50
2023-04-02T06:22:51.446Z,32.48
2023-04-02T06:23:21.439Z,32.44
2023-04-02T06:23:51.549Z,32.48
2023-04-02T06:24:21.664Z,32.50
2023-04-02T06:24:51.785Z,32.48
2023-04-02T06:25:21.783Z,32.47
2023-04-02T06:25:53.294Z,32.52
2023-04-02T06:26:22.014Z,32.47
2023-04-02T06:26:52.006Z,32.48
2023-04-02T06:27:22.122Z,32.51
2023-04-02T06:27:52.240Z,32.47
2023-04-02T06:28:22.235Z,32.47
2023-04-02T06:29:22.329Z,32.52
2023-04-02T06:29:52.315Z,32.48
2023-04-02T06:30:22.429Z,32.48
2023-04-02T06:30:52.516Z,32.45
2023-04-02T06:31:22.653Z,32.45
2023-04-02T06:31:52.539Z,32.47
2023-04-02T06:32:52.639Z,32.48
2023-04-02T06:33:22.607Z,32.48
2023-04-02T06:33:52.629Z,32.47
2023-04-02T06:34:22.604Z,32.47
2023-04-02T06:35:22.678Z,32.44
2023-04-02T06:35:52.807Z,32.47
2023-04-02T06:36:22.916Z,32.50
2023-04-02T06:36:52.899Z,32.48
2023-04-02T06:37:22.915Z,32.48
2023-04-02T06:37:52.911Z,32.48
2023-04-02T06:38:23.027Z,32.41
2023-04-02T06:38:53.145Z,32.50
2023-04-02T06:39:23.142Z,32.47
2023-04-02T06:40:23.223Z,32.50
2023-04-02T06:40:53.330Z,32.47
2023-04-02T06:41:23.321Z,32.45
2023-04-02T06:41:53.438Z,32.51
2023-04-02T06:42:23.559Z,32.47
2023-04-02T06:42:53.552Z,32.46
2023-04-02T06:43:23.655Z,32.42
2023-04-02T06:43:53.773Z,32.47
2023-04-02T06:44:23.772Z,32.48
2023-04-02T06:44:53.888Z,32.48
2023-04-02T06:45:24.005Z,32.45
2023-04-02T06:45:54.148Z,32.41
2023-04-02T06:46:24.188Z,32.41
2023-04-02T06:46:54.192Z,32.49
2023-04-02T06:47:24.422Z,32.45
2023-04-02T06:47:54.420Z,32.48
2023-04-02T06:48:24.405Z,32.48
2023-04-02T06:48:54.542Z,32.49
2023-04-02T06:49:24.567Z,32.48
2023-04-02T06:49:54.646Z,32.43
2023-04-02T06:50:24.765Z,32.41
2023-04-02T06:50:54.918Z,32.48
2023-04-02T06:51:24.896Z,32.47
2023-04-02T06:51:54.900Z,32.43
2023-04-02T06:52:24.900Z,32.48
2023-04-02T06:52:55.016Z,32.42
2023-04-02T06:53:25.135Z,32.51
2023-04-02T06:53:55.125Z,32.51
2023-04-02T06:54:25.240Z,32.43
2023-04-02T06:54:55.400Z,32.43
2023-04-02T06:55:25.422Z,32.45
2023-04-02T06:55:55.433Z,32.45
2023-04-02T06:56:25.432Z,32.48
2023-04-02T06:56:55.563Z,32.45
2023-04-02T06:57:25.579Z,32.46